sensor_id;sensor_type;location;lat;lon;timestamp;pressure;altitude;pressure_sealevel;temperature;humidity
76050;BME280;64967;50.234;19.224;2023-12-22T00:02:18;73634.38;;;-143.90;100.00
76050;BME280;64967;50.234;19.224;2023-12-22T00:04:45;73628.16;;;-143.90;100.00
76050;BME280;64967;50.234;19.224;2023-12-22T00:07:11;73634.38;;;-143.90;100.00
76050;BME280;64967;50.234;19.224;2023-12-22T00:09:38;73640.56;;;-143.90;100.00
76050;BME280;64967;50.234;19.224;2023-12-22T00:12:05;73652.97;;;-143.90;100.00
76050;BME280;64967;50.234;19.224;2023-12-22T00:14:31;73659.16;;;-143.90;100.00
76050;BME280;64967;50.234;19.224;2023-12-22T00:16:58;73675.69;;;-143.90;100.00
76050;BME280;64967;50.234;19.224;2023-12-22T00:19:25;73671.56;;;-143.90;100.00
76050;BME280;64967;50.234;19.224;2023-12-22T00:21:52;73683.97;;;-143.90;100.00
76050;BME280;64967;50.234;19.224;2023-12-22T00:24:18;73721.16;;;-143.90;100.00
76050;BME280;64967;50.234;19.224;2023-12-22T00:26:45;73708.78;;;-143.90;100.00
76050;BME280;64967;50.234;19.224;2023-12-22T00:29:12;73696.38;;;-143.90;100.00
76050;BME280;64967;50.234;19.224;2023-12-22T00:31:38;73717.03;;;-143.90;100.00
76050;BME280;64967;50.234;19.224;2023-12-22T00:34:05;73733.56;;;-143.90;100.00
76050;BME280;64967;50.234;19.224;2023-12-22T00:36:32;73741.84;;;-143.90;100.00
76050;BME280;64967;50.234;19.224;2023-12-22T00:38:58;73750.09;;;-143.90;100.00
76050;BME280;64967;50.234;19.224;2023-12-22T00:41:25;73762.50;;;-143.90;100.00
76050;BME280;64967;50.234;19.224;2023-12-22T00:43:52;73754.25;;;-143.90;100.00
76050;BME280;64967;50.234;19.224;2023-12-22T00:46:18;73770.78;;;-143.90;100.00
76050;BME280;64967;50.234;19.224;2023-12-22T00:48:46;73783.16;;;-143.90;100.00
76050;BME280;64967;50.234;19.224;2023-12-22T00:51:13;73793.50;;;-143.90;100.00
76050;BME280;64967;50.234;19.224;2023-12-22T00:53:40;73797.63;;;-143.90;100.00
76050;BME280;64967;50.234;19.224;2023-12-22T00:56:08;73799.69;;;-143.90;100.00
76050;BME280;64967;50.234;19.224;2023-12-22T00:58:35;73803.84;;;-143.90;100.00
76050;BME280;64967;50.234;19.224;2023-12-22T01:01:02;73799.69;;;-143.90;100.00
76050;BME280;64967;50.234;19.224;2023-12-22T01:03:28;73787.31;;;-143.90;100.00
76050;BME280;64967;50.234;19.224;2023-12-22T01:05:55;73779.03;;;-143.90;100.00
76050;BME280;64967;50.234;19.224;2023-12-22T01:08:22;73768.69;;;-143.90;100.00
76050;BME280;64967;50.234;19.224;2023-12-22T01:10:49;73764.56;;;-143.90;100.00
76050;BME280;64967;50.234;19.224;2023-12-22T01:13:15;73768.69;;;-143.90;100.00
76050;BME280;64967;50.234;19.224;2023-12-22T01:15:42;73766.63;;;-143.90;100.00
76050;BME280;64967;50.234;19.224;2023-12-22T01:18:11;73768.69;;;-143.90;100.00
76050;BME280;64967;50.234;19.224;2023-12-22T01:20:40;73762.50;;;-143.90;100.00
76050;BME280;64967;50.234;19.224;2023-12-22T01:23:06;73779.03;;;-143.90;100.00
76050;BME280;64967;50.234;19.224;2023-12-22T01:25:33;73774.91;;;-143.90;100.00
76050;BME280;64967;50.234;19.224;2023-12-22T01:28:00;73781.09;;;-143.90;100.00
76050;BME280;64967;50.234;19.224;2023-12-22T01:30:31;73785.25;;;-143.90;100.00
76050;BME280;64967;50.234;19.224;2023-12-22T01:32:57;73787.31;;;-143.90;100.00
76050;BME280;64967;50.234;19.224;2023-12-22T01:35:24;73810.03;;;-143.90;100.00
76050;BME280;64967;50.234;19.224;2023-12-22T01:37:51;73807.97;;;-143.90;100.00
76050;BME280;64967;50.234;19.224;2023-12-22T01:40:18;73816.25;;;-143.90;100.00
76050;BME280;64967;50.234;19.224;2023-12-22T01:42:44;73820.38;;;-143.90;100.00
76050;BME280;64967;50.234;19.224;2023-12-22T01:45:12;73812.09;;;-143.90;100.00
76050;BME280;64967;50.234;19.224;2023-12-22T01:47:38;73820.38;;;-143.90;100.00
76050;BME280;64967;50.234;19.224;2023-12-22T01:50:06;73818.31;;;-143.90;100.00
76050;BME280;64967;50.234;19.224;2023-12-22T01:52:33;73830.69;;;-143.90;100.00
76050;BME280;64967;50.234;19.224;2023-12-22T01:55:00;73841.03;;;-143.90;100.00
76050;BME280;64967;50.234;19.224;2023-12-22T01:57:26;73855.50;;;-143.90;100.00
76050;BME280;64967;50.234;19.224;2023-12-22T01:59:53;73863.78;;;-143.90;100.00
76050;BME280;64967;50.234;19.224;2023-12-22T02:02:20;73861.69;;;-143.90;100.00
76050;BME280;64967;50.234;19.224;2023-12-22T02:04:46;73863.78;;;-143.90;100.00
76050;BME280;64967;50.234;19.224;2023-12-22T02:07:14;73851.38;;;-143.90;100.00
76050;BME280;64967;50.234;19.224;2023-12-22T02:09:40;73859.63;;;-143.90;100.00
76050;BME280;64967;50.234;19.224;2023-12-22T02:12:07;73872.03;;;-143.90;100.00
76050;BME280;64967;50.234;19.224;2023-12-22T02:14:34;73872.03;;;-143.90;100.00
76050;BME280;64967;50.234;19.224;2023-12-22T02:17:21;73861.69;;;-143.90;100.00
76050;BME280;64967;50.234;19.224;2023-12-22T02:19:51;73857.56;;;-143.90;100.00
76050;BME280;64967;50.234;19.224;2023-12-22T02:22:17;73863.78;;;-143.90;100.00
76050;BME280;64967;50.234;19.224;2023-12-22T02:24:44;73863.78;;;-143.90;100.00
76050;BME280;64967;50.234;19.224;2023-12-22T02:27:20;73886.50;;;-143.90;100.00
76050;BME280;64967;50.234;19.224;2023-12-22T02:29:57;73876.16;;;-143.90;100.00
76050;BME280;64967;50.234;19.224;2023-12-22T02:32:32;73872.03;;;-143.90;100.00
76050;BME280;64967;50.234;19.224;2023-12-22T02:35:03;73872.03;;;-143.90;100.00
76050;BME280;64967;50.234;19.224;2023-12-22T02:37:32;73872.03;;;-143.90;100.00
76050;BME280;64967;50.234;19.224;2023-12-22T02:40:01;73859.63;;;-143.90;100.00
76050;BME280;64967;50.234;19.224;2023-12-22T02:42:29;73861.69;;;-143.90;100.00
76050;BME280;64967;50.234;19.224;2023-12-22T02:44:57;73857.56;;;-143.90;100.00
76050;BME280;64967;50.234;19.224;2023-12-22T02:47:25;73849.31;;;-143.90;100.00
76050;BME280;64967;50.234;19.224;2023-12-22T02:49:54;73838.97;;;-143.90;100.00
76050;BME280;64967;50.234;19.224;2023-12-22T02:52:21;73851.38;;;-143.90;100.00
76050;BME280;64967;50.234;19.224;2023-12-22T02:54:48;73849.31;;;-143.90;100.00
76050;BME280;64967;50.234;19.224;2023-12-22T02:57:14;73843.09;;;-143.90;100.00
76050;BME280;64967;50.234;19.224;2023-12-22T02:59:41;73841.03;;;-143.90;100.00
76050;BME280;64967;50.234;19.224;2023-12-22T03:02:08;73851.38;;;-143.90;100.00
76050;BME280;64967;50.234;19.224;2023-12-22T03:04:34;73853.44;;;-143.90;98.51
76050;BME280;64967;50.234;19.224;2023-12-22T03:07:01;73865.84;;;-143.90;98.63
76050;BME280;64967;50.234;19.224;2023-12-22T03:09:27;73845.16;;;-143.90;97.08
76050;BME280;64967;50.234;19.224;2023-12-22T03:11:54;73847.25;;;-143.90;96.50
76050;BME280;64967;50.234;19.224;2023-12-22T03:14:22;73845.16;;;-143.90;96.96
76050;BME280;64967;50.234;19.224;2023-12-22T03:16:49;73836.91;;;-143.90;97.04
76050;BME280;64967;50.234;19.224;2023-12-22T03:19:16;73845.16;;;-143.90;96.90
76050;BME280;64967;50.234;19.224;2023-12-22T03:21:42;73841.03;;;-143.90;96.79
76050;BME280;64967;50.234;19.224;2023-12-22T03:24:09;73849.31;;;-143.90;96.38
76050;BME280;64967;50.234;19.224;2023-12-22T03:26:36;73841.03;;;-143.90;95.90
76050;BME280;64967;50.234;19.224;2023-12-22T03:29:02;73849.31;;;-143.90;93.83
76050;BME280;64967;50.234;19.224;2023-12-22T03:31:29;73863.78;;;-143.90;93.60
76050;BME280;64967;50.234;19.224;2023-12-22T03:33:56;73865.84;;;-143.90;93.28
76050;BME280;64967;50.234;19.224;2023-12-22T03:36:22;73867.91;;;-143.90;93.61
76050;BME280;64967;50.234;19.224;2023-12-22T03:38:49;73874.09;;;-143.90;92.07
76050;BME280;64967;50.234;19.224;2023-12-22T03:41:15;73876.16;;;-143.90;92.42
76050;BME280;64967;50.234;19.224;2023-12-22T03:43:42;73876.16;;;-143.90;92.18
76050;BME280;64967;50.234;19.224;2023-12-22T03:46:09;73882.38;;;-143.90;90.23
76050;BME280;64967;50.234;19.224;2023-12-22T03:48:35;73874.09;;;-143.90;91.36
76050;BME280;64967;50.234;19.224;2023-12-22T03:51:02;73874.09;;;-143.90;91.70
76050;BME280;64967;50.234;19.224;2023-12-22T03:53:29;73878.25;;;-143.90;94.11
76050;BME280;64967;50.234;19.224;2023-12-22T03:55:55;73890.63;;;-143.90;93.76
76050;BME280;64967;50.234;19.224;2023-12-22T03:58:22;73874.09;;;-143.90;94.76
76050;BME280;64967;50.234;19.224;2023-12-22T04:00:49;73894.78;;;-143.90;93.52
76050;BME280;64967;50.234;19.224;2023-12-22T04:03:15;73884.44;;;-143.90;92.89
76050;BME280;64967;50.234;19.224;2023-12-22T04:05:42;73878.25;;;-143.90;94.60
76050;BME280;64967;50.234;19.224;2023-12-22T04:08:09;73869.97;;;-143.90;94.09
76050;BME280;64967;50.234;19.224;2023-12-22T04:10:35;73878.25;;;-143.90;94.46
76050;BME280;64967;50.234;19.224;2023-12-22T04:13:02;73886.50;;;-143.90;94.49
76050;BME280;64967;50.234;19.224;2023-12-22T04:15:29;73900.97;;;-143.90;94.24
76050;BME280;64967;50.234;19.224;2023-12-22T04:17:55;73903.03;;;-143.90;95.73
76050;BME280;64967;50.234;19.224;2023-12-22T04:20:22;73911.31;;;-143.90;95.87
76050;BME280;64967;50.234;19.224;2023-12-22T04:22:50;73915.44;;;-143.90;97.96
76050;BME280;64967;50.234;19.224;2023-12-22T04:25:17;73911.31;;;-143.90;98.37
76050;BME280;64967;50.234;19.224;2023-12-22T04:27:44;73907.16;;;-143.90;97.57
76050;BME280;64967;50.234;19.224;2023-12-22T04:30:11;73915.44;;;-143.90;96.97
76050;BME280;64967;50.234;19.224;2023-12-22T04:32:38;73919.56;;;-143.90;98.82
76050;BME280;64967;50.234;19.224;2023-12-22T04:35:05;73936.09;;;-143.90;99.91
76050;BME280;64967;50.234;19.224;2023-12-22T04:37:32;73954.72;;;-143.90;100.00
76050;BME280;64967;50.234;19.224;2023-12-22T04:39:59;73989.84;;;-143.90;100.00
76050;BME280;64967;50.234;19.224;2023-12-22T04:42:26;74037.38;;;-143.90;100.00
76050;BME280;64967;50.234;19.224;2023-12-22T04:44:52;74163.47;;;-143.90;100.00
76050;BME280;64967;50.234;19.224;2023-12-22T04:47:19;74297.81;;;-143.90;100.00
76050;BME280;64967;50.234;19.224;2023-12-22T04:49:46;74357.75;;;-143.90;100.00
76050;BME280;64967;50.234;19.224;2023-12-22T04:52:13;74363.94;;;-143.90;100.00
76050;BME280;64967;50.234;19.224;2023-12-22T04:54:39;74361.88;;;-143.90;100.00
76050;BME280;64967;50.234;19.224;2023-12-22T04:57:06;74366.00;;;-143.90;100.00
76050;BME280;64967;50.234;19.224;2023-12-22T04:59:33;74380.47;;;-143.90;100.00
76050;BME280;64967;50.234;19.224;2023-12-22T05:01:59;74372.22;;;-143.90;100.00
76050;BME280;64967;50.234;19.224;2023-12-22T05:04:27;74384.63;;;-143.90;100.00
76050;BME280;64967;50.234;19.224;2023-12-22T05:06:53;74394.94;;;-143.90;100.00
76050;BME280;64967;50.234;19.224;2023-12-22T05:09:20;74401.16;;;-143.90;100.00
76050;BME280;64967;50.234;19.224;2023-12-22T05:11:47;74399.09;;;-143.90;100.00
76050;BME280;64967;50.234;19.224;2023-12-22T05:14:14;74407.34;;;-143.90;100.00
76050;BME280;64967;50.234;19.224;2023-12-22T05:16:40;74411.50;;;-143.90;100.00
76050;BME280;64967;50.234;19.224;2023-12-22T05:19:07;74428.03;;;-143.90;100.00
76050;BME280;64967;50.234;19.224;2023-12-22T05:21:34;74428.03;;;-143.90;100.00
76050;BME280;64967;50.234;19.224;2023-12-22T05:24:00;74432.16;;;-143.90;100.00
76050;BME280;64967;50.234;19.224;2023-12-22T05:26:27;74423.88;;;-143.90;100.00
76050;BME280;64967;50.234;19.224;2023-12-22T05:28:56;74413.56;;;-143.90;100.00
76050;BME280;64967;50.234;19.224;2023-12-22T05:31:24;74411.50;;;-143.90;100.00
76050;BME280;64967;50.234;19.224;2023-12-22T05:33:50;74399.09;;;-143.90;100.00
76050;BME280;64967;50.234;19.224;2023-12-22T05:36:17;74390.81;;;-143.90;100.00
76050;BME280;64967;50.234;19.224;2023-12-22T05:38:44;74374.28;;;-143.90;100.00
76050;BME280;64967;50.234;19.224;2023-12-22T05:41:11;74368.09;;;-143.90;100.00
76050;BME280;64967;50.234;19.224;2023-12-22T05:43:37;74349.47;;;-143.90;100.00
76050;BME280;64967;50.234;19.224;2023-12-22T05:46:04;74353.63;;;-143.90;100.00
76050;BME280;64967;50.234;19.224;2023-12-22T05:48:30;74345.34;;;-143.90;100.00
76050;BME280;64967;50.234;19.224;2023-12-22T05:50:57;74337.06;;;-143.90;100.00
76050;BME280;64967;50.234;19.224;2023-12-22T05:53:24;74339.16;;;-143.90;100.00
76050;BME280;64967;50.234;19.224;2023-12-22T05:55:51;74345.34;;;-143.90;100.00
76050;BME280;64967;50.234;19.224;2023-12-22T05:58:17;74361.88;;;-143.90;100.00
76050;BME280;64967;50.234;19.224;2023-12-22T06:00:44;74351.53;;;-143.90;100.00
76050;BME280;64967;50.234;19.224;2023-12-22T06:03:10;74353.63;;;-143.90;100.00
76050;BME280;64967;50.234;19.224;2023-12-22T06:05:37;74351.53;;;-143.90;100.00
76050;BME280;64967;50.234;19.224;2023-12-22T06:08:05;74339.16;;;-143.90;100.00
76050;BME280;64967;50.234;19.224;2023-12-22T06:10:32;74341.22;;;-143.90;100.00
76050;BME280;64967;50.234;19.224;2023-12-22T06:12:58;74332.94;;;-143.90;100.00
76050;BME280;64967;50.234;19.224;2023-12-22T06:15:29;74337.06;;;-143.90;100.00
76050;BME280;64967;50.234;19.224;2023-12-22T06:17:56;74320.53;;;-143.90;100.00
76050;BME280;64967;50.234;19.224;2023-12-22T06:20:22;74312.28;;;-143.90;100.00
76050;BME280;64967;50.234;19.224;2023-12-22T06:22:49;74285.41;;;-143.90;100.00
76050;BME280;64967;50.234;19.224;2023-12-22T06:25:16;74283.34;;;-143.90;100.00
76050;BME280;64967;50.234;19.224;2023-12-22T06:27:45;74287.47;;;-143.90;100.00
76050;BME280;64967;50.234;19.224;2023-12-22T06:30:12;74266.81;;;-143.90;100.00
76050;BME280;64967;50.234;19.224;2023-12-22T06:32:40;74275.06;;;-143.90;100.00
76050;BME280;64967;50.234;19.224;2023-12-22T06:35:08;74279.22;;;-143.90;100.00
76050;BME280;64967;50.234;19.224;2023-12-22T06:37:39;74283.34;;;-143.90;100.00
76050;BME280;64967;50.234;19.224;2023-12-22T06:40:06;74299.88;;;-143.90;100.00
76050;BME280;64967;50.234;19.224;2023-12-22T06:42:33;74322.59;;;-143.90;100.00
76050;BME280;64967;50.234;19.224;2023-12-22T06:45:00;74320.53;;;-143.90;100.00
76050;BME280;64967;50.234;19.224;2023-12-22T06:47:26;74324.69;;;-143.90;100.00
76050;BME280;64967;50.234;19.224;2023-12-22T06:49:53;74324.69;;;-143.90;100.00
76050;BME280;64967;50.234;19.224;2023-12-22T06:52:20;74326.75;;;-143.90;100.00
76050;BME280;64967;50.234;19.224;2023-12-22T06:54:47;74332.94;;;-143.90;100.00
76050;BME280;64967;50.234;19.224;2023-12-22T06:57:14;74351.53;;;-143.90;100.00
76050;BME280;64967;50.234;19.224;2023-12-22T06:59:42;74355.69;;;-143.90;100.00
76050;BME280;64967;50.234;19.224;2023-12-22T07:02:11;74353.63;;;-143.90;100.00
76050;BME280;64967;50.234;19.224;2023-12-22T07:05:29;74349.47;;;-143.90;100.00
76050;BME280;64967;50.234;19.224;2023-12-22T07:07:53;74351.53;;;-143.90;100.00
76050;BME280;64967;50.234;19.224;2023-12-22T07:10:20;74353.63;;;-143.90;100.00
76050;BME280;64967;50.234;19.224;2023-12-22T07:12:47;74341.22;;;-143.90;100.00
76050;BME280;64967;50.234;19.224;2023-12-22T07:15:13;74347.41;;;-143.90;100.00
76050;BME280;64967;50.234;19.224;2023-12-22T07:17:40;74337.06;;;-143.90;100.00
76050;BME280;64967;50.234;19.224;2023-12-22T07:20:07;74337.06;;;-143.90;100.00
76050;BME280;64967;50.234;19.224;2023-12-22T07:22:35;74343.28;;;-143.90;100.00
76050;BME280;64967;50.234;19.224;2023-12-22T07:25:02;74337.06;;;-143.90;100.00
76050;BME280;64967;50.234;19.224;2023-12-22T07:27:28;74332.94;;;-143.90;100.00
76050;BME280;64967;50.234;19.224;2023-12-22T07:29:55;74324.69;;;-143.90;100.00
76050;BME280;64967;50.234;19.224;2023-12-22T07:32:22;74324.69;;;-143.90;100.00
76050;BME280;64967;50.234;19.224;2023-12-22T07:34:48;74320.53;;;-143.90;100.00
76050;BME280;64967;50.234;19.224;2023-12-22T07:37:15;74324.69;;;-143.90;100.00
76050;BME280;64967;50.234;19.224;2023-12-22T07:39:41;74314.34;;;-143.90;100.00
76050;BME280;64967;50.234;19.224;2023-12-22T07:42:11;74312.28;;;-143.90;100.00
76050;BME280;64967;50.234;19.224;2023-12-22T07:44:39;74310.22;;;-143.90;100.00
76050;BME280;64967;50.234;19.224;2023-12-22T07:47:06;74320.53;;;-143.90;100.00
76050;BME280;64967;50.234;19.224;2023-12-22T07:49:33;74326.75;;;-143.90;100.00
76050;BME280;64967;50.234;19.224;2023-12-22T07:52:00;74322.59;;;-143.90;100.00
76050;BME280;64967;50.234;19.224;2023-12-22T07:54:29;74337.06;;;-143.90;100.00
76050;BME280;64967;50.234;19.224;2023-12-22T07:56:56;74326.75;;;-143.90;100.00
76050;BME280;64967;50.234;19.224;2023-12-22T07:59:22;74326.75;;;-143.90;100.00
76050;BME280;64967;50.234;19.224;2023-12-22T08:01:57;74320.53;;;-143.90;100.00
76050;BME280;64967;50.234;19.224;2023-12-22T08:04:24;74314.34;;;-143.90;100.00
76050;BME280;64967;50.234;19.224;2023-12-22T08:06:50;74301.94;;;-143.90;100.00
76050;BME280;64967;50.234;19.224;2023-12-22T08:09:18;74291.59;;;-143.90;100.00
76050;BME280;64967;50.234;19.224;2023-12-22T08:11:45;74283.34;;;-143.90;100.00
76050;BME280;64967;50.234;19.224;2023-12-22T08:14:16;74283.34;;;-143.90;100.00
76050;BME280;64967;50.234;19.224;2023-12-22T08:16:43;74275.06;;;-143.90;100.00
76050;BME280;64967;50.234;19.224;2023-12-22T08:19:10;74273.00;;;-143.90;100.00
76050;BME280;64967;50.234;19.224;2023-12-22T08:21:37;74275.06;;;-143.90;100.00
76050;BME280;64967;50.234;19.224;2023-12-22T08:24:11;74273.00;;;-143.90;100.00
76050;BME280;64967;50.234;19.224;2023-12-22T08:26:48;74283.34;;;-143.90;100.00
76050;BME280;64967;50.234;19.224;2023-12-22T08:29:15;74283.34;;;-143.90;100.00
76050;BME280;64967;50.234;19.224;2023-12-22T08:31:43;74277.13;;;-143.90;100.00
76050;BME280;64967;50.234;19.224;2023-12-22T08:34:12;74295.75;;;-143.90;100.00
76050;BME280;64967;50.234;19.224;2023-12-22T08:36:39;74299.88;;;-143.90;100.00
76050;BME280;64967;50.234;19.224;2023-12-22T08:39:06;74328.81;;;-143.90;100.00
76050;BME280;64967;50.234;19.224;2023-12-22T08:41:35;74332.94;;;-143.90;100.00
76050;BME280;64967;50.234;19.224;2023-12-22T08:44:05;74330.88;;;-143.90;100.00
76050;BME280;64967;50.234;19.224;2023-12-22T08:46:32;74394.94;;;-143.90;100.00
76050;BME280;64967;50.234;19.224;2023-12-22T08:48:59;74401.16;;;-143.90;100.00
76050;BME280;64967;50.234;19.224;2023-12-22T08:51:27;74401.16;;;-143.90;100.00
76050;BME280;64967;50.234;19.224;2023-12-22T08:53:54;74417.69;;;-143.90;100.00
76050;BME280;64967;50.234;19.224;2023-12-22T08:56:24;74390.81;;;-143.90;100.00
76050;BME280;64967;50.234;19.224;2023-12-22T08:58:54;74372.22;;;-143.90;100.00
76050;BME280;64967;50.234;19.224;2023-12-22T09:01:22;74370.16;;;-143.90;100.00
76050;BME280;64967;50.234;19.224;2023-12-22T09:03:49;74361.88;;;-143.90;100.00
76050;BME280;64967;50.234;19.224;2023-12-22T09:06:20;74353.63;;;-143.90;100.00
76050;BME280;64967;50.234;19.224;2023-12-22T09:08:47;74341.22;;;-143.90;100.00
76050;BME280;64967;50.234;19.224;2023-12-22T09:11:16;74341.22;;;-143.90;100.00
76050;BME280;64967;50.234;19.224;2023-12-22T09:13:43;74330.88;;;-143.90;100.00
76050;BME280;64967;50.234;19.224;2023-12-22T09:16:11;74322.59;;;-143.90;100.00
76050;BME280;64967;50.234;19.224;2023-12-22T09:18:37;74312.28;;;-143.90;100.00
76050;BME280;64967;50.234;19.224;2023-12-22T09:21:04;74283.34;;;-143.90;100.00
76050;BME280;64967;50.234;19.224;2023-12-22T09:23:31;74275.06;;;-143.90;100.00
76050;BME280;64967;50.234;19.224;2023-12-22T09:25:58;74273.00;;;-143.90;100.00
76050;BME280;64967;50.234;19.224;2023-12-22T09:28:25;74277.13;;;-143.90;100.00
76050;BME280;64967;50.234;19.224;2023-12-22T09:30:52;74299.88;;;-143.90;100.00
76050;BME280;64967;50.234;19.224;2023-12-22T09:33:19;74295.75;;;-143.90;100.00
76050;BME280;64967;50.234;19.224;2023-12-22T09:35:46;74308.13;;;-143.90;100.00
76050;BME280;64967;50.234;19.224;2023-12-22T09:38:12;74324.69;;;-143.90;100.00
76050;BME280;64967;50.234;19.224;2023-12-22T09:40:43;74324.69;;;-143.90;100.00
76050;BME280;64967;50.234;19.224;2023-12-22T09:43:12;74310.22;;;-143.90;100.00
76050;BME280;64967;50.234;19.224;2023-12-22T09:45:41;74291.59;;;-143.90;100.00
76050;BME280;64967;50.234;19.224;2023-12-22T09:48:08;74279.22;;;-143.90;100.00
76050;BME280;64967;50.234;19.224;2023-12-22T09:50:38;74266.81;;;-143.90;100.00
76050;BME280;64967;50.234;19.224;2023-12-22T09:53:06;74262.66;;;-143.90;100.00
76050;BME280;64967;50.234;19.224;2023-12-22T09:55:34;74264.72;;;-143.90;100.00
76050;BME280;64967;50.234;19.224;2023-12-22T09:58:02;74260.59;;;-143.90;100.00
76050;BME280;64967;50.234;19.224;2023-12-22T10:00:31;74275.06;;;-143.90;100.00
76050;BME280;64967;50.234;19.224;2023-12-22T10:02:58;74283.34;;;-143.90;100.00
76050;BME280;64967;50.234;19.224;2023-12-22T10:05:26;74268.88;;;-143.90;100.00
76050;BME280;64967;50.234;19.224;2023-12-22T10:07:52;74239.94;;;-143.90;100.00
76050;BME280;64967;50.234;19.224;2023-12-22T10:10:21;74213.06;;;-143.90;100.00
76050;BME280;64967;50.234;19.224;2023-12-22T10:12:49;74192.41;;;-143.90;100.00
76050;BME280;64967;50.234;19.224;2023-12-22T10:15:19;74163.47;;;-143.90;100.00
76050;BME280;64967;50.234;19.224;2023-12-22T10:17:51;74163.47;;;-143.90;100.00
76050;BME280;64967;50.234;19.224;2023-12-22T10:20:19;74155.19;;;-143.90;100.00
76050;BME280;64967;50.234;19.224;2023-12-22T10:22:46;74153.13;;;-143.90;100.00
76050;BME280;64967;50.234;19.224;2023-12-22T10:25:20;74130.38;;;-143.90;100.00
76050;BME280;64967;50.234;19.224;2023-12-22T10:27:47;74115.91;;;-143.90;100.00
76050;BME280;64967;50.234;19.224;2023-12-22T10:30:14;74109.72;;;-143.90;100.00
76050;BME280;64967;50.234;19.224;2023-12-22T10:32:41;74105.59;;;-143.90;100.00
76050;BME280;64967;50.234;19.224;2023-12-22T10:35:09;74095.25;;;-143.90;100.00
76050;BME280;64967;50.234;19.224;2023-12-22T10:37:36;74093.19;;;-143.90;100.00
76050;BME280;64967;50.234;19.224;2023-12-22T10:40:06;74084.91;;;-143.90;100.00
76050;BME280;64967;50.234;19.224;2023-12-22T10:42:35;74105.59;;;-143.90;100.00
76050;BME280;64967;50.234;19.224;2023-12-22T10:45:02;74118.00;;;-143.90;100.00
76050;BME280;64967;50.234;19.224;2023-12-22T10:47:29;74120.06;;;-143.90;100.00
76050;BME280;64967;50.234;19.224;2023-12-22T10:49:56;74157.25;;;-143.90;100.00
76050;BME280;64967;50.234;19.224;2023-12-22T10:52:23;74221.31;;;-143.90;100.00
76050;BME280;64967;50.234;19.224;2023-12-22T10:54:50;74273.00;;;-143.90;100.00
76050;BME280;64967;50.234;19.224;2023-12-22T10:57:17;74330.88;;;-143.90;100.00
76050;BME280;64967;50.234;19.224;2023-12-22T10:59:47;74386.69;;;-143.90;100.00
76050;BME280;64967;50.234;19.224;2023-12-22T11:02:27;74419.75;;;-143.90;100.00
76050;BME280;64967;50.234;19.224;2023-12-22T11:04:57;74413.56;;;-143.90;100.00
76050;BME280;64967;50.234;19.224;2023-12-22T11:07:28;74409.41;;;-143.90;100.00
76050;BME280;64967;50.234;19.224;2023-12-22T11:10:02;74394.94;;;-143.90;100.00
76050;BME280;64967;50.234;19.224;2023-12-22T11:12:37;74407.34;;;-143.90;100.00
76050;BME280;64967;50.234;19.224;2023-12-22T11:15:05;74397.03;;;-143.90;100.00
76050;BME280;64967;50.234;19.224;2023-12-22T11:17:34;74374.28;;;-143.90;100.00
76050;BME280;64967;50.234;19.224;2023-12-22T11:20:03;74349.47;;;-143.90;100.00
76050;BME280;64967;50.234;19.224;2023-12-22T11:22:31;74332.94;;;-143.90;100.00
76050;BME280;64967;50.234;19.224;2023-12-22T11:25:00;74337.06;;;-143.90;100.00
76050;BME280;64967;50.234;19.224;2023-12-22T11:27:27;74337.06;;;-143.90;100.00
76050;BME280;64967;50.234;19.224;2023-12-22T11:29:55;74337.06;;;-143.90;100.00
76050;BME280;64967;50.234;19.224;2023-12-22T11:32:23;74316.41;;;-143.90;100.00
76050;BME280;64967;50.234;19.224;2023-12-22T11:34:51;74330.88;;;-143.90;100.00
76050;BME280;64967;50.234;19.224;2023-12-22T11:37:19;74310.22;;;-143.90;100.00
76050;BME280;64967;50.234;19.224;2023-12-22T11:39:46;74293.66;;;-143.90;100.00
76050;BME280;64967;50.234;19.224;2023-12-22T11:42:20;74289.53;;;-143.90;100.00
76050;BME280;64967;50.234;19.224;2023-12-22T11:44:47;74299.88;;;-143.90;100.00
76050;BME280;64967;50.234;19.224;2023-12-22T11:47:14;74281.28;;;-143.90;100.00
76050;BME280;64967;50.234;19.224;2023-12-22T11:49:42;74268.88;;;-143.90;100.00
76050;BME280;64967;50.234;19.224;2023-12-22T11:52:10;74252.34;;;-143.90;100.00
76050;BME280;64967;50.234;19.224;2023-12-22T11:54:47;74273.00;;;-143.90;100.00
76050;BME280;64967;50.234;19.224;2023-12-22T11:59:54;74223.41;;;-143.90;100.00
76050;BME280;64967;50.234;19.224;2023-12-22T12:02:22;74217.19;;;-143.90;100.00
76050;BME280;64967;50.234;19.224;2023-12-22T12:04:53;74213.06;;;-143.90;100.00
76050;BME280;64967;50.234;19.224;2023-12-22T12:07:39;74206.88;;;-143.90;100.00
76050;BME280;64967;50.234;19.224;2023-12-22T12:10:10;74204.78;;;-143.90;100.00
76050;BME280;64967;50.234;19.224;2023-12-22T12:12:37;74196.53;;;-143.90;100.00
76050;BME280;64967;50.234;19.224;2023-12-22T12:15:17;74188.25;;;-143.90;100.00
76050;BME280;64967;50.234;19.224;2023-12-22T12:17:44;74186.19;;;-143.90;100.00
76050;BME280;64967;50.234;19.224;2023-12-22T12:20:11;74173.78;;;-143.90;100.00
76050;BME280;64967;50.234;19.224;2023-12-22T12:22:38;74159.31;;;-143.90;100.00
76050;BME280;64967;50.234;19.224;2023-12-22T12:25:10;74161.38;;;-143.90;100.00
76050;BME280;64967;50.234;19.224;2023-12-22T12:28:04;74149.00;;;-143.90;100.00